Time;durP1;ratioP1;P1;durP2;ratioP2;P2;SDS_P1;SDS_P2;PMS_P1;PMS_P2;Temp;Humidity;BMP_temperature;BMP_pressure;BME280_temperature;BME280_humidity;BME280_pressure;Samples;Min_cycle;Max_cycle;Signal;HPM_P1;HPM_P2
2023/07/27 00:00:05;;;;;;;3.25;1.25;;;12.40;99.90;;;;;;5063575;28;20040;-85
2023/07/27 00:02:31;;;;;;;3.42;1.35;;;12.50;99.90;;;;;;5054442;28;20042;-85
2023/07/27 00:04:57;;;;;;;4.32;1.30;;;12.40;99.90;;;;;;5053457;28;20133;-86
2023/07/27 00:07:24;;;;;;;1.35;0.75;;;12.40;99.90;;;;;;5037317;28;20091;-85
2023/07/27 00:09:50;;;;;;;4.35;1.55;;;12.40;99.90;;;;;;5054118;28;20511;-86
2023/07/27 00:12:16;;;;;;;2.40;1.52;;;12.40;99.90;;;;;;5053295;28;20049;-85
2023/07/27 00:14:42;;;;;;;2.72;1.15;;;12.40;99.90;;;;;;5053965;28;20076;-85
2023/07/27 00:17:08;;;;;;;2.70;1.30;;;12.40;99.90;;;;;;5037418;28;20044;-86
2023/07/27 00:19:33;;;;;;;4.28;1.83;;;12.40;99.90;;;;;;5034391;28;20159;-86
2023/07/27 00:21:59;;;;;;;5.75;1.30;;;12.30;99.90;;;;;;5017208;28;20051;-86
2023/07/27 00:24:25;;;;;;;6.97;1.35;;;12.40;99.90;;;;;;5034125;28;20043;-86
2023/07/27 00:26:51;;;;;;;2.47;1.15;;;12.40;99.90;;;;;;5047105;28;20492;-85
2023/07/27 00:29:17;;;;;;;2.65;0.90;;;12.50;99.90;;;;;;5053682;28;20048;-85
2023/07/27 00:31:43;;;;;;;5.00;1.55;;;12.50;99.90;;;;;;5052896;28;20049;-86
2023/07/27 00:34:08;;;;;;;2.60;1.20;;;12.60;99.90;;;;;;5071302;28;20124;-86
2023/07/27 00:36:34;;;;;;;1.90;0.93;;;12.70;99.90;;;;;;5053341;28;20043;-85
2023/07/27 00:39:00;;;;;;;4.03;1.80;;;12.70;99.90;;;;;;5052646;28;20168;-85
2023/07/27 00:41:26;;;;;;;3.90;1.33;;;12.70;99.90;;;;;;5071414;28;20036;-86
2023/07/27 00:43:51;;;;;;;3.90;1.58;;;12.80;99.90;;;;;;5053179;28;20123;-85
2023/07/27 00:46:17;;;;;;;2.20;1.33;;;12.80;99.90;;;;;;5052854;28;20046;-85
2023/07/27 00:48:44;;;;;;;10.13;2.22;;;12.80;99.90;;;;;;5071080;28;20047;-86
2023/07/27 00:51:11;;;;;;;4.20;1.40;;;12.90;99.90;;;;;;5036598;28;20041;-86
2023/07/27 00:53:37;;;;;;;2.85;1.13;;;12.90;99.90;;;;;;5052522;28;20045;-86
2023/07/27 00:56:04;;;;;;;3.13;1.13;;;13.00;99.90;;;;;;5036751;28;20536;-86
2023/07/27 00:58:31;;;;;;;3.20;1.60;;;13.00;99.90;;;;;;5053051;28;20149;-85
2023/07/27 01:01:01;;;;;;;2.55;1.55;;;13.00;99.90;;;;;;5069963;28;20415;-86
2023/07/27 01:03:28;;;;;;;3.08;1.27;;;13.00;99.90;;;;;;5070929;28;20040;-85
2023/07/27 01:05:54;;;;;;;2.97;1.05;;;13.00;99.90;;;;;;5033093;28;20396;-86
2023/07/27 01:08:20;;;;;;;4.88;1.70;;;13.00;99.90;;;;;;5049273;28;20129;-86
2023/07/27 01:10:55;;;;;;;1.80;0.98;;;13.00;99.90;;;;;;5033029;28;20068;-86
2023/07/27 01:13:27;;;;;;;4.72;1.25;;;13.00;99.90;;;;;;5049837;28;20384;-86
2023/07/27 01:16:02;;;;;;;4.70;1.85;;;13.00;99.90;;;;;;5032380;28;20091;-85
2023/07/27 01:18:38;;;;;;;4.85;1.40;;;13.00;99.90;;;;;;5050730;28;20119;-86
2023/07/27 01:21:15;;;;;;;4.00;1.30;;;13.00;99.90;;;;;;5032267;28;20037;-86
2023/07/27 01:23:50;;;;;;;7.28;1.83;;;13.10;99.90;;;;;;5069325;28;20032;-86
2023/07/27 01:26:34;;;;;;;3.55;1.20;;;13.10;99.90;;;;;;5052564;28;20515;-86
2023/07/27 01:29:26;;;;;;;2.08;1.17;;;13.10;99.90;;;;;;5052177;28;20067;-86
2023/07/27 01:31:54;;;;;;;2.05;1.05;;;13.20;99.90;;;;;;4972064;28;20053;-86
2023/07/27 01:34:34;;;;;;;5.22;1.40;;;13.20;99.90;;;;;;4972602;28;20085;-86
2023/07/27 01:37:16;;;;;;;1.85;1.13;;;13.20;99.90;;;;;;4955830;28;20046;-85
2023/07/27 01:39:46;;;;;;;4.22;1.13;;;13.20;99.90;;;;;;4972747;28;20124;-86
2023/07/27 01:42:13;;;;;;;;;;;13.20;99.90;;;;;;4988599;28;20058;-86
2023/07/27 01:44:40;;;;;;;2.92;1.10;;;13.20;99.90;;;;;;4956390;28;19918;-87
2023/07/27 01:47:08;;;;;;;2.83;1.60;;;13.20;99.90;;;;;;4972511;28;20125;-86
2023/07/27 01:49:36;;;;;;;2.55;1.27;;;13.30;99.90;;;;;;4955831;28;20097;-85
2023/07/27 01:52:04;;;;;;;5.72;2.03;;;13.30;99.90;;;;;;4972580;28;20437;-85
2023/07/27 01:54:31;;;;;;;3.45;1.00;;;13.30;99.90;;;;;;4972412;28;20046;-85
2023/07/27 01:56:58;;;;;;;5.60;1.60;;;13.30;99.90;;;;;;4971567;28;20043;-86
2023/07/27 01:59:24;;;;;;;3.75;1.90;;;13.30;99.90;;;;;;4971918;28;20038;-85
2023/07/27 02:01:51;;;;;;;4.40;1.83;;;13.30;99.90;;;;;;4956228;28;20046;-85
2023/07/27 02:04:17;;;;;;;3.38;1.55;;;13.30;99.90;;;;;;4971667;28;20038;-85
2023/07/27 02:06:49;;;;;;;3.13;1.40;;;13.30;99.90;;;;;;4988512;28;20108;-85
2023/07/27 02:09:14;;;;;;;3.75;1.70;;;13.30;99.90;;;;;;5024402;28;20049;-85
2023/07/27 02:11:44;;;;;;;3.63;1.50;;;13.30;99.90;;;;;;5051331;28;20044;-85
2023/07/27 02:14:30;;;;;;;2.63;1.50;;;13.30;99.90;;;;;;5035642;28;20098;-85
2023/07/27 02:17:01;;;;;;;1.60;1.08;;;13.30;99.90;;;;;;5051452;28;20055;-85
2023/07/27 02:19:32;;;;;;;4.32;1.90;;;13.30;99.90;;;;;;5051862;28;20041;-85
2023/07/27 02:21:58;;;;;;;2.95;1.38;;;13.40;99.90;;;;;;5052138;28;20544;-84
2023/07/27 02:24:25;;;;;;;4.45;1.42;;;13.40;99.90;;;;;;5069539;28;20488;-86
2023/07/27 02:26:51;;;;;;;2.58;1.38;;;13.40;99.90;;;;;;5035140;28;20055;-85
2023/07/27 02:29:18;;;;;;;2.03;1.38;;;13.40;99.90;;;;;;5069878;28;20048;-85
2023/07/27 02:31:44;;;;;;;2.55;1.33;;;13.40;99.90;;;;;;5051112;28;20053;-86
2023/07/27 02:34:09;;;;;;;2.78;1.00;;;13.50;99.90;;;;;;5031861;28;20041;-85
2023/07/27 02:36:35;;;;;;;4.07;1.30;;;13.50;99.90;;;;;;5049795;28;20094;-85
2023/07/27 02:39:01;;;;;;;2.42;1.17;;;13.50;99.90;;;;;;5031357;28;20045;-85
2023/07/27 02:41:27;;;;;;;3.65;1.33;;;13.50;99.90;;;;;;5050113;28;20051;-84
2023/07/27 02:43:52;;;;;;;3.22;1.45;;;13.60;99.90;;;;;;5033886;28;20041;-85
2023/07/27 02:46:18;;;;;;;4.57;1.50;;;13.60;99.90;;;;;;5035190;28;20048;-85
2023/07/27 02:48:44;;;;;;;5.03;1.67;;;13.70;99.90;;;;;;5019427;28;20134;-85
2023/07/27 02:51:09;;;;;;;2.45;0.90;;;13.70;99.90;;;;;;5035360;28;20477;-85
2023/07/27 02:53:35;;;;;;;3.20;1.30;;;13.70;99.90;;;;;;5049396;28;20048;-85
2023/07/27 02:56:03;;;;;;;5.13;1.67;;;13.60;99.90;;;;;;5055629;28;20040;-85
2023/07/27 02:58:29;;;;;;;4.63;1.70;;;13.70;99.90;;;;;;5038765;28;20485;-84
2023/07/27 03:01:01;;;;;;;3.55;1.77;;;13.70;99.90;;;;;;5054464;28;20499;-85
2023/07/27 03:03:27;;;;;;;3.47;1.58;;;13.60;99.90;;;;;;5055431;28;20181;-84
2023/07/27 03:05:57;;;;;;;4.18;1.88;;;13.50;99.90;;;;;;5054465;28;20123;-84
2023/07/27 03:08:23;;;;;;;2.13;1.33;;;13.50;99.90;;;;;;5055255;28;20066;-84
2023/07/27 03:10:49;;;;;;;2.90;1.60;;;13.50;99.90;;;;;;5038652;28;20052;-85
2023/07/27 03:13:15;;;;;;;3.20;1.20;;;13.50;99.90;;;;;;5054427;28;20041;-85
2023/07/27 03:15:41;;;;;;;5.93;2.05;;;13.40;99.90;;;;;;5055011;28;20044;-85
2023/07/27 03:18:07;;;;;;;4.32;2.00;;;13.40;99.90;;;;;;5055015;28;20120;-85
2023/07/27 03:20:43;;;;;;;4.63;1.70;;;13.40;99.90;;;;;;5054284;28;20443;-85
2023/07/27 03:23:09;;;;;;;4.68;1.80;;;13.30;99.90;;;;;;5054975;28;20044;-84
2023/07/27 03:25:36;;;;;;;5.35;2.47;;;13.30;99.90;;;;;;5038150;28;20064;-85
2023/07/27 03:28:07;;;;;;;2.92;1.67;;;13.30;99.90;;;;;;5037452;28;20032;-84
2023/07/27 03:30:36;;;;;;;3.95;1.50;;;13.20;99.90;;;;;;5072893;28;20040;-84
2023/07/27 03:33:06;;;;;;;6.07;1.83;;;13.20;99.90;;;;;;5035284;28;20053;-84
2023/07/27 03:35:33;;;;;;;6.07;1.80;;;13.20;99.90;;;;;;5069162;28;20557;-85
2023/07/27 03:37:58;;;;;;;4.28;2.40;;;13.20;99.90;;;;;;5054412;28;20190;-85
2023/07/27 03:40:24;;;;;;;4.63;2.45;;;13.20;99.90;;;;;;5054454;28;20044;-85
2023/07/27 03:42:50;;;;;;;5.03;1.98;;;13.20;99.90;;;;;;5037001;28;20047;-85
2023/07/27 03:45:16;;;;;;;5.05;2.08;;;13.20;99.90;;;;;;5054271;28;20033;-85
2023/07/27 03:47:43;;;;;;;4.20;1.92;;;13.20;99.90;;;;;;5071624;28;20486;-85
2023/07/27 03:50:09;;;;;;;3.42;1.38;;;13.20;99.90;;;;;;5054348;28;20115;-84
2023/07/27 03:52:36;;;;;;;2.55;1.75;;;13.10;99.90;;;;;;5037529;28;20090;-84
2023/07/27 03:55:02;;;;;;;7.68;2.42;;;13.10;99.90;;;;;;5053111;28;20075;-84
2023/07/27 03:57:28;;;;;;;3.95;1.73;;;13.10;99.90;;;;;;5054050;28;20036;-84
2023/07/27 03:59:58;;;;;;;5.88;2.17;;;13.10;99.90;;;;;;5053722;28;20085;-85
2023/07/27 04:02:25;;;;;;;3.75;1.77;;;13.10;99.90;;;;;;5052862;28;20063;-85
2023/07/27 04:04:51;;;;;;;3.13;1.50;;;13.10;99.90;;;;;;5053492;28;20495;-85
2023/07/27 04:07:18;;;;;;;6.35;2.80;;;13.10;99.90;;;;;;5054089;28;20048;-85
2023/07/27 04:09:44;;;;;;;5.63;2.60;;;13.20;99.90;;;;;;5053161;28;20041;-85
2023/07/27 04:12:10;;;;;;;4.57;2.45;;;13.20;99.90;;;;;;5036708;28;20044;-84
2023/07/27 04:14:36;;;;;;;3.05;1.75;;;13.20;99.90;;;;;;5053242;28;20063;-85
2023/07/27 04:17:02;;;;;;;5.85;2.38;;;13.20;99.90;;;;;;5071196;28;20040;-85
2023/07/27 04:19:28;;;;;;;4.20;2.25;;;13.20;99.90;;;;;;5036991;28;20189;-84
2023/07/27 04:21:54;;;;;;;3.92;1.80;;;13.20;99.90;;;;;;5054077;28;20048;-84
2023/07/27 04:24:20;;;;;;;7.05;2.05;;;13.20;99.90;;;;;;5036155;28;20539;-84
2023/07/27 04:26:45;;;;;;;3.85;2.17;;;13.20;99.90;;;;;;5053244;28;20052;-85
2023/07/27 04:29:11;;;;;;;3.80;1.90;;;13.20;99.90;;;;;;5037059;28;20040;-84
2023/07/27 04:31:37;;;;;;;4.40;2.63;;;13.30;99.90;;;;;;5053175;28;20044;-84
2023/07/27 04:34:03;;;;;;;6.13;2.03;;;13.30;99.90;;;;;;5071515;28;20040;-85
2023/07/27 04:36:28;;;;;;;4.47;2.15;;;13.30;99.90;;;;;;5053524;28;20048;-85
2023/07/27 04:38:54;;;;;;;5.05;2.42;;;13.30;99.90;;;;;;5055612;28;20036;-84
2023/07/27 04:41:20;;;;;;;6.15;2.42;;;13.30;99.90;;;;;;5075727;28;20044;-84
2023/07/27 04:43:45;;;;;;;4.80;2.10;;;13.40;99.90;;;;;;5052795;28;20044;-84
2023/07/27 04:46:11;;;;;;;6.22;2.60;;;13.40;99.90;;;;;;5053249;28;20048;-83
2023/07/27 04:48:37;;;;;;;6.00;2.60;;;13.40;99.90;;;;;;5053224;28;20037;-84
2023/07/27 04:51:03;;;;;;;3.80;1.95;;;13.50;99.90;;;;;;5035929;28;20119;-84
2023/07/27 04:53:29;;;;;;;5.40;2.13;;;13.50;99.90;;;;;;5053313;28;20033;-85
2023/07/27 04:55:54;;;;;;;3.58;1.83;;;13.50;99.90;;;;;;5071209;28;20076;-85
2023/07/27 04:58:21;;;;;;;2.92;1.48;;;13.50;99.90;;;;;;5052830;28;20125;-85
2023/07/27 05:00:55;;;;;;;3.10;1.45;;;13.60;99.90;;;;;;5052680;28;20047;-86
2023/07/27 05:03:21;;;;;;;4.93;1.85;;;13.60;99.90;;;;;;5053098;28;20051;-86
2023/07/27 05:05:47;;;;;;;3.53;1.58;;;13.60;99.90;;;;;;5051737;28;20036;-86
2023/07/27 05:08:13;;;;;;;2.95;1.58;;;13.60;99.90;;;;;;5052891;28;20044;-86
2023/07/27 05:10:42;;;;;;;2.00;1.27;;;13.60;99.90;;;;;;5052986;28;20055;-86
2023/07/27 05:13:08;;;;;;;3.50;1.38;;;13.70;99.90;;;;;;5052398;28;20396;-86
2023/07/27 05:15:34;;;;;;;2.38;1.05;;;13.70;99.90;;;;;;5052805;28;20033;-85
2023/07/27 05:18:00;;;;;;;4.15;1.60;;;13.70;99.90;;;;;;5036325;28;20052;-85
2023/07/27 05:20:26;;;;;;;2.97;1.30;;;13.70;99.90;;;;;;5052428;28;20040;-87
2023/07/27 05:22:52;;;;;;;3.10;1.23;;;13.70;99.90;;;;;;5052732;28;20123;-86
2023/07/27 05:25:18;;;;;;;3.28;1.30;;;13.80;99.90;;;;;;5052406;28;20061;-86
2023/07/27 05:27:44;;;;;;;3.60;1.08;;;13.80;99.90;;;;;;5051946;28;20131;-86
2023/07/27 05:30:10;;;;;;;2.30;1.33;;;13.80;99.90;;;;;;5036037;28;20048;-85
2023/07/27 05:32:37;;;;;;;3.88;1.92;;;13.80;99.90;;;;;;5070541;28;20135;-86
2023/07/27 05:35:03;;;;;;;3.13;1.70;;;13.80;99.90;;;;;;5070432;28;20040;-86
2023/07/27 05:37:29;;;;;;;2.97;1.33;;;13.90;99.90;;;;;;5070536;28;20052;-86
2023/07/27 05:39:55;;;;;;;3.03;1.88;;;13.90;99.90;;;;;;5051966;28;20040;-87
2023/07/27 05:42:21;;;;;;;5.03;1.40;;;13.90;99.90;;;;;;5052478;28;20063;-86
2023/07/27 05:44:46;;;;;;;2.10;1.40;;;13.90;99.90;;;;;;5035800;28;20063;-86
2023/07/27 05:47:13;;;;;;;1.75;1.10;;;13.90;99.90;;;;;;5048343;28;20048;-88
2023/07/27 05:49:39;;;;;;;2.80;1.20;;;13.90;99.90;;;;;;5032690;28;20048;-87
2023/07/27 05:52:05;;;;;;;6.55;2.28;;;14.00;99.90;;;;;;5032503;28;20086;-88
2023/07/27 05:54:31;;;;;;;3.72;1.58;;;14.00;99.90;;;;;;5015424;28;20033;-87
2023/07/27 05:56:57;;;;;;;2.20;1.20;;;14.00;99.90;;;;;;5015909;28;20044;-87
2023/07/27 05:59:23;;;;;;;4.05;2.00;;;14.00;99.90;;;;;;5039276;28;20045;-87
2023/07/27 06:01:49;;;;;;;4.72;2.03;;;14.00;99.90;;;;;;5051849;28;20037;-87
2023/07/27 06:04:16;;;;;;;4.32;1.85;;;14.00;99.90;;;;;;5052260;28;20120;-87
2023/07/27 06:06:45;;;;;;;3.63;1.80;;;14.00;99.90;;;;;;5052591;28;20471;-88
2023/07/27 06:09:10;;;;;;;4.28;2.10;;;14.10;99.90;;;;;;5035111;28;20044;-88
2023/07/27 06:11:37;;;;;;;5.22;2.17;;;14.10;99.90;;;;;;5052364;28;20045;-87
2023/07/27 06:14:03;;;;;;;4.43;2.50;;;14.10;99.90;;;;;;5052439;28;20037;-88
2023/07/27 06:16:28;;;;;;;2.47;1.73;;;14.20;99.90;;;;;;5051724;28;20476;-87
2023/07/27 06:18:54;;;;;;;3.78;1.35;;;14.30;99.90;;;;;;5054116;28;20033;-88
2023/07/27 06:21:20;;;;;;;4.80;1.88;;;14.30;99.90;;;;;;5074292;28;20047;-87
2023/07/27 06:23:46;;;;;;;6.10;2.30;;;14.30;99.90;;;;;;5055841;28;20077;-87
2023/07/27 06:26:11;;;;;;;3.30;1.88;;;14.30;99.90;;;;;;5039431;28;20052;-90
2023/07/27 06:28:37;;;;;;;4.43;2.15;;;14.30;99.90;;;;;;5055392;28;20456;-86
2023/07/27 06:31:03;;;;;;;4.80;2.30;;;14.40;99.90;;;;;;5056130;28;20044;-88
2023/07/27 06:33:29;;;;;;;7.70;2.72;;;14.40;99.90;;;;;;5039105;28;20049;-87
2023/07/27 06:35:54;;;;;;;2.97;1.67;;;14.40;99.90;;;;;;5055276;28;20048;-87
2023/07/27 06:38:20;;;;;;;3.90;1.90;;;14.40;99.90;;;;;;5055664;28;20068;-86
2023/07/27 06:40:46;;;;;;;3.70;2.20;;;14.40;99.90;;;;;;5073882;28;20036;-88
2023/07/27 06:43:12;;;;;;;3.47;1.63;;;14.40;99.90;;;;;;5072956;28;20603;-86
2023/07/27 06:45:38;;;;;;;4.45;1.92;;;14.40;99.90;;;;;;5039256;28;20045;-86
2023/07/27 06:48:04;;;;;;;5.28;1.95;;;14.40;99.90;;;;;;5055629;28;20044;-87
2023/07/27 06:50:30;;;;;;;4.00;1.63;;;14.40;99.90;;;;;;5064375;28;20044;-86
2023/07/27 06:52:56;;;;;;;4.88;1.65;;;14.40;99.90;;;;;;5076006;28;20080;-86
2023/07/27 06:55:21;;;;;;;2.47;1.60;;;14.40;99.90;;;;;;5055592;28;20550;-87
2023/07/27 06:57:47;;;;;;;3.33;1.90;;;14.50;99.90;;;;;;5054991;28;20123;-89
2023/07/27 07:00:14;;;;;;;2.10;1.33;;;14.50;99.90;;;;;;5055140;28;20102;-88
2023/07/27 07:02:40;;;;;;;5.47;2.00;;;14.50;99.90;;;;;;5045391;28;20108;-88
2023/07/27 07:05:06;;;;;;;5.40;1.30;;;14.50;99.90;;;;;;5072645;28;20075;-88
2023/07/27 07:07:32;;;;;;;5.85;2.58;;;14.50;99.90;;;;;;5055624;28;20047;-87
2023/07/27 07:09:59;;;;;;;3.92;1.45;;;14.50;99.90;;;;;;5055045;28;20054;-87
2023/07/27 07:12:24;;;;;;;4.18;1.50;;;14.50;99.90;;;;;;5054865;28;20113;-87
2023/07/27 07:14:51;;;;;;;3.13;1.67;;;14.60;99.90;;;;;;5073308;28;20484;-87
2023/07/27 07:17:16;;;;;;;3.53;1.98;;;14.60;99.90;;;;;;5038809;28;20067;-87
2023/07/27 07:19:42;;;;;;;3.38;1.80;;;14.60;99.90;;;;;;5020691;28;20477;-88
2023/07/27 07:22:08;;;;;;;3.47;1.80;;;14.60;99.90;;;;;;5035036;28;20048;-85
2023/07/27 07:24:34;;;;;;;4.63;1.92;;;14.60;99.90;;;;;;5034911;28;20037;-86
2023/07/27 07:27:00;;;;;;;2.65;1.38;;;14.60;99.90;;;;;;5034199;28;20060;-86
2023/07/27 07:29:26;;;;;;;2.13;1.38;;;14.60;99.90;;;;;;5034210;28;20053;-86
2023/07/27 07:31:52;;;;;;;4.00;2.03;;;14.60;99.90;;;;;;5051816;28;20522;-87
2023/07/27 07:34:18;;;;;;;3.35;1.58;;;14.50;99.90;;;;;;5044869;28;20041;-87
2023/07/27 07:36:44;;;;;;;2.72;1.52;;;14.60;99.90;;;;;;5072857;28;20032;-87
2023/07/27 07:39:10;;;;;;;3.88;1.85;;;14.60;99.90;;;;;;5039182;28;20045;-84
2023/07/27 07:41:35;;;;;;;1.50;0.90;;;14.60;99.90;;;;;;5034874;28;20052;-87
2023/07/27 07:44:01;;;;;;;2.80;1.42;;;14.60;99.90;;;;;;5038149;28;20268;-92
2023/07/27 07:46:27;;;;;;;3.15;0.95;;;14.60;99.90;;;;;;5036535;28;20037;-84
2023/07/27 07:48:53;;;;;;;2.75;1.20;;;14.60;99.90;;;;;;5052372;28;20048;-84
2023/07/27 07:51:18;;;;;;;1.95;1.02;;;14.60;99.90;;;;;;5034574;28;20073;-85
2023/07/27 07:53:44;;;;;;;1.17;0.73;;;14.60;99.90;;;;;;5033776;28;20582;-85
2023/07/27 07:56:17;;;;;;;2.30;0.88;;;14.70;99.90;;;;;;5042815;28;20047;-86
2023/07/27 07:58:46;;;;;;;1.58;0.73;;;14.60;99.90;;;;;;5054101;28;20495;-87
2023/07/27 08:01:13;;;;;;;1.90;0.95;;;14.70;99.90;;;;;;5071520;28;20024;-86
2023/07/27 08:03:39;;;;;;;2.95;1.10;;;14.70;99.90;;;;;;5072481;28;20036;-86
2023/07/27 08:06:06;;;;;;;1.63;0.77;;;14.80;99.90;;;;;;5072616;28;20090;-85
2023/07/27 08:08:33;;;;;;;2.08;1.35;;;14.80;99.90;;;;;;5056125;28;20431;-93
2023/07/27 08:11:03;;;;;;;1.65;1.00;;;14.90;99.90;;;;;;5055178;28;20072;-84
2023/07/27 08:13:29;;;;;;;;;;;14.90;99.90;;;;;;5054421;28;20399;-85
2023/07/27 08:15:55;;;;;;;1.25;0.57;;;14.90;99.90;;;;;;5071582;28;19931;-85
2023/07/27 08:18:21;;;;;;;0.85;0.63;;;15.00;99.90;;;;;;5066739;28;20037;-85
2023/07/27 08:20:58;;;;;;;1.55;0.90;;;15.00;99.90;;;;;;5051321;28;20275;-85
2023/07/27 08:23:23;;;;;;;1.40;0.88;;;15.00;99.90;;;;;;5051779;28;20045;-84
2023/07/27 08:25:49;;;;;;;1.90;0.88;;;15.00;99.90;;;;;;5033443;28;20163;-85
2023/07/27 08:28:15;;;;;;;2.45;1.00;;;15.00;99.90;;;;;;5053326;28;20098;-84
2023/07/27 08:30:43;;;;;;;1.63;0.73;;;15.10;99.90;;;;;;5036825;28;20036;-85
2023/07/27 08:33:09;;;;;;;1.27;0.55;;;15.10;99.90;;;;;;5071550;28;20119;-86
2023/07/27 08:35:35;;;;;;;1.50;0.75;;;15.10;99.90;;;;;;5036151;28;20441;-86
2023/07/27 08:38:01;;;;;;;1.15;0.63;;;15.10;99.90;;;;;;5033638;28;20132;-86
2023/07/27 08:40:26;;;;;;;0.95;0.80;;;15.20;99.90;;;;;;5015043;28;20069;-86
2023/07/27 08:42:52;;;;;;;3.33;1.13;;;15.20;99.90;;;;;;5032632;28;20063;-85
2023/07/27 08:45:21;;;;;;;0.85;0.50;;;15.30;99.90;;;;;;5051322;28;20072;-87
2023/07/27 08:47:49;;;;;;;2.35;0.90;;;15.30;99.90;;;;;;5051300;28;20124;-86
2023/07/27 08:50:15;;;;;;;1.92;0.80;;;15.30;99.90;;;;;;5032800;28;20461;-85
2023/07/27 08:52:41;;;;;;;1.52;0.93;;;15.40;99.90;;;;;;5043456;28;20048;-86
2023/07/27 08:55:07;;;;;;;3.88;1.20;;;15.50;99.90;;;;;;5071155;28;20064;-86
2023/07/27 08:57:33;;;;;;;2.63;1.08;;;15.60;99.90;;;;;;5070371;28;20047;-85
2023/07/27 08:59:59;;;;;;;2.08;0.85;;;15.60;99.90;;;;;;5053032;28;20048;-86
2023/07/27 09:02:25;;;;;;;1.92;0.75;;;15.70;99.90;;;;;;5036412;28;20051;-86
2023/07/27 09:04:51;;;;;;;2.03;0.80;;;15.70;99.90;;;;;;5051944;28;20044;-85
2023/07/27 09:07:18;;;;;;;1.65;0.85;;;15.70;99.90;;;;;;5071000;28;20068;-86
2023/07/27 09:09:51;;;;;;;1.10;0.73;;;15.70;99.90;;;;;;5052118;28;20044;-86
2023/07/27 09:12:18;;;;;;;1.88;0.85;;;15.80;99.90;;;;;;5053270;28;20392;-86
2023/07/27 09:14:44;;;;;;;1.70;0.75;;;15.90;99.90;;;;;;5052837;28;20533;-86
2023/07/27 09:17:12;;;;;;;0.70;0.40;;;15.90;99.90;;;;;;5035534;28;20040;-86
2023/07/27 09:19:40;;;;;;;0.95;0.52;;;15.90;99.90;;;;;;5070782;28;20075;-85
2023/07/27 09:22:07;;;;;;;0.95;0.43;;;15.90;99.90;;;;;;5052475;28;20051;-86
2023/07/27 09:24:34;;;;;;;1.10;0.45;;;16.00;99.90;;;;;;5052085;28;20098;-85
2023/07/27 09:27:01;;;;;;;5.15;0.88;;;16.10;99.90;;;;;;5032529;28;20064;-86
2023/07/27 09:29:28;;;;;;;1.08;0.88;;;16.20;99.90;;;;;;5050626;28;20123;-85
2023/07/27 09:31:58;;;;;;;2.10;1.08;;;16.20;99.90;;;;;;5049135;28;20496;-86
2023/07/27 09:34:28;;;;;;;1.42;0.82;;;16.30;99.90;;;;;;5052860;28;20395;-84
2023/07/27 09:36:55;;;;;;;1.08;0.63;;;16.30;99.90;;;;;;5052621;28;20051;-86
2023/07/27 09:39:24;;;;;;;2.63;0.60;;;16.30;99.90;;;;;;5052246;28;20036;-86
2023/07/27 09:41:51;;;;;;;2.17;0.88;;;16.40;99.90;;;;;;5070790;28;20052;-85
2023/07/27 09:44:18;;;;;;;1.30;0.50;;;16.50;99.90;;;;;;5070625;28;20399;-86
2023/07/27 09:46:45;;;;;;;1.67;0.68;;;16.60;99.90;;;;;;5051961;28;20059;-86
2023/07/27 09:49:18;;;;;;;0.85;0.57;;;16.70;99.90;;;;;;5052407;28;20044;-86
2023/07/27 09:51:44;;;;;;;1.83;0.68;;;16.80;99.90;;;;;;5051568;28;20098;-86
2023/07/27 09:54:14;;;;;;;1.20;0.70;;;16.80;99.90;;;;;;5052440;28;20115;-86
2023/07/27 09:56:40;;;;;;;1.60;0.90;;;16.90;99.90;;;;;;5052636;28;20119;-86
2023/07/27 09:59:07;;;;;;;1.50;0.90;;;16.90;99.90;;;;;;5051154;28;20047;-86
2023/07/27 10:01:33;;;;;;;1.30;0.82;;;16.80;99.90;;;;;;5052589;28;20043;-87
2023/07/27 10:03:59;;;;;;;0.70;0.57;;;16.80;99.90;;;;;;5052194;28;20071;-86
2023/07/27 10:06:29;;;;;;;2.38;1.00;;;16.90;99.90;;;;;;5051955;28;20083;-87
2023/07/27 10:08:56;;;;;;;1.73;0.93;;;16.90;99.90;;;;;;5052182;28;20125;-88
2023/07/27 10:11:57;;;;;;;2.00;0.82;;;17.00;99.90;;;;;;5070258;28;20094;-87
2023/07/27 10:14:27;;;;;;;1.42;0.80;;;17.00;99.90;;;;;;5035128;28;20434;-86
2023/07/27 10:17:04;;;;;;;1.30;0.77;;;17.10;99.90;;;;;;5052225;28;20044;-86
2023/07/27 10:19:45;;;;;;;2.15;0.93;;;17.10;99.90;;;;;;5052030;28;20041;-86
2023/07/27 10:22:13;;;;;;;3.53;0.60;;;17.20;99.90;;;;;;5052231;28;20072;-86
2023/07/27 10:24:56;;;;;;;1.52;0.60;;;17.20;99.90;;;;;;5052095;28;20527;-86
2023/07/27 10:27:24;;;;;;;1.02;0.60;;;17.30;99.90;;;;;;5051481;28;20048;-86
2023/07/27 10:30:08;;;;;;;1.85;0.90;;;17.30;99.90;;;;;;5052138;28;20392;-86
2023/07/27 10:32:36;;;;;;;1.63;0.80;;;17.40;99.90;;;;;;5035153;28;20127;-86
2023/07/27 10:35:07;;;;;;;2.67;1.02;;;17.40;99.90;;;;;;5051426;28;20182;-86
2023/07/27 10:38:00;;;;;;;2.75;0.93;;;17.40;99.90;;;;;;5051502;28;20048;-85
2023/07/27 10:40:29;;;;;;;1.23;0.70;;;17.50;99.90;;;;;;5065977;28;20067;-86
2023/07/27 10:42:56;;;;;;;1.65;0.95;;;17.50;99.90;;;;;;5052278;28;20484;-92
2023/07/27 10:45:26;;;;;;;2.03;0.88;;;17.50;99.90;;;;;;5053653;28;20037;-91
2023/07/27 10:47:56;;;;;;;1.30;0.90;;;17.60;99.90;;;;;;5037015;28;20040;-87
2023/07/27 10:50:22;;;;;;;2.28;1.35;;;17.70;99.90;;;;;;5034899;28;20047;-88
2023/07/27 10:52:52;;;;;;;2.17;1.08;;;17.80;99.90;;;;;;5051591;28;20039;-88
2023/07/27 10:55:20;;;;;;;2.42;1.27;;;17.90;99.90;;;;;;5051249;28;20098;-88
2023/07/27 10:57:47;;;;;;;3.28;1.35;;;17.90;99.90;;;;;;5052156;28;20123;-88
2023/07/27 11:00:13;;;;;;;4.60;1.20;;;18.00;99.90;;;;;;5069846;28;20090;-88
2023/07/27 11:02:42;;;;;;;2.42;1.20;;;18.00;99.90;;;;;;5051776;28;20094;-88
2023/07/27 11:05:08;;;;;;;3.53;1.27;;;18.00;99.90;;;;;;5053843;28;20123;-87
2023/07/27 11:07:39;;;;;;;1.75;0.98;;;17.90;99.90;;;;;;5055732;28;20036;-87
2023/07/27 11:10:09;;;;;;;2.28;1.02;;;17.90;99.90;;;;;;5054673;28;20044;-88
2023/07/27 11:12:49;;;;;;;1.95;0.93;;;17.90;99.90;;;;;;5055416;28;20045;-87
2023/07/27 11:15:17;;;;;;;2.13;0.88;;;17.90;99.90;;;;;;5054975;28;20033;-87
2023/07/27 11:17:42;;;;;;;1.20;0.75;;;18.00;99.90;;;;;;5072477;28;20043;-86
2023/07/27 11:20:10;;;;;;;1.73;0.95;;;18.00;99.90;;;;;;5073346;28;20488;-89
2023/07/27 11:22:37;;;;;;;2.75;1.00;;;18.00;99.90;;;;;;5038697;28;20049;-88
2023/07/27 11:25:06;;;;;;;1.25;0.75;;;17.90;99.90;;;;;;5038306;28;20037;-89
2023/07/27 11:27:32;;;;;;;;;;;17.90;99.90;;;;;;5039152;28;20131;-87
2023/07/27 11:30:01;;;;;;;1.13;0.63;;;17.90;99.90;;;;;;5054806;28;20011;-88
2023/07/27 11:32:27;;;;;;;1.30;0.85;;;17.90;99.90;;;;;;5073073;28;20373;-89
2023/07/27 11:34:57;;;;;;;1.45;0.50;;;17.80;99.90;;;;;;5055553;28;20028;-89
2023/07/27 11:37:29;;;;;;;2.20;0.73;;;17.80;99.90;;;;;;5072413;28;20048;-88
2023/07/27 11:39:58;;;;;;;1.02;0.63;;;17.80;99.90;;;;;;5055043;28;20090;-87
2023/07/27 11:42:35;;;;;;;1.25;0.40;;;17.90;99.90;;;;;;5072731;28;20044;-87
2023/07/27 11:45:02;;;;;;;1.35;0.60;;;18.00;99.90;;;;;;5071841;28;20047;-88
2023/07/27 11:47:39;;;;;;;1.02;0.63;;;18.00;99.90;;;;;;5037928;28;20044;-87
2023/07/27 11:50:06;;;;;;;2.35;0.90;;;18.10;99.90;;;;;;5072623;28;20077;-88
2023/07/27 11:52:35;;;;;;;1.27;0.60;;;18.20;99.90;;;;;;5050408;28;20124;-87
2023/07/27 11:55:01;;;;;;;1.13;0.60;;;18.20;99.90;;;;;;5071774;28;20036;-87
2023/07/27 11:57:27;;;;;;;0.90;0.50;;;18.30;99.90;;;;;;5054637;28;20405;-86
2023/07/27 12:00:13;;;;;;;1.40;0.55;;;18.30;99.90;;;;;;5053927;28;20366;-88
2023/07/27 12:02:46;;;;;;;0.95;0.47;;;18.40;99.90;;;;;;5054529;28;20044;-88
2023/07/27 12:05:13;;;;;;;3.03;0.80;;;18.40;99.90;;;;;;5071858;28;20400;-87
2023/07/27 12:07:40;;;;;;;1.35;0.73;;;18.40;99.90;;;;;;5072277;28;20078;-87
2023/07/27 12:10:11;;;;;;;0.93;0.30;;;18.30;99.90;;;;;;5072387;28;20047;-86
2023/07/27 12:13:00;;;;;;;1.17;0.60;;;18.30;99.90;;;;;;5053562;28;20047;-88
2023/07/27 12:15:28;;;;;;;0.85;0.40;;;18.30;99.90;;;;;;5054291;28;20064;-88
2023/07/27 12:17:56;;;;;;;1.75;0.45;;;18.20;99.90;;;;;;5072448;28;20410;-88
2023/07/27 12:20:23;;;;;;;1.45;0.60;;;18.20;99.90;;;;;;5050477;28;20037;-88
2023/07/27 12:22:49;;;;;;;0.70;0.40;;;18.30;99.90;;;;;;5069939;28;20045;-88
2023/07/27 12:25:15;;;;;;;1.02;0.43;;;18.30;99.90;;;;;;5071722;28;20060;-86
2023/07/27 12:27:41;;;;;;;0.77;0.30;;;18.40;99.90;;;;;;5036816;28;20177;-87
2023/07/27 12:30:09;;;;;;;2.42;0.40;;;18.40;99.90;;;;;;5053709;28;20036;-87
2023/07/27 12:32:35;;;;;;;3.40;0.52;;;18.30;99.90;;;;;;5071583;28;20048;-87
2023/07/27 12:35:02;;;;;;;0.55;0.28;;;18.30;99.90;;;;;;5070797;28;20037;-87
2023/07/27 12:37:29;;;;;;;0.98;0.43;;;18.30;99.90;;;;;;5071589;28;20098;-87
2023/07/27 12:39:55;;;;;;;1.27;0.40;;;18.30;99.90;;;;;;5070725;28;20110;-88
2023/07/27 12:42:21;;;;;;;1.48;0.50;;;18.30;99.90;;;;;;5071269;28;20473;-87
2023/07/27 12:44:47;;;;;;;1.35;0.50;;;18.30;99.90;;;;;;5053309;28;20080;-87
2023/07/27 12:47:13;;;;;;;2.65;0.73;;;18.30;99.90;;;;;;5053088;28;20466;-86
2023/07/27 12:49:39;;;;;;;1.42;0.70;;;18.30;99.90;;;;;;5036981;28;20139;-87